Impacts TAF Board
For situational awareness. Not to be used for flight planning purposes.
IDs:

EDDK - Koln-Bonn Arpt, NT, DE

Issued at 1700 UTC 01 Dec 2021
Updated at 2116 UTC 01 Dec 2021
Potential Impact None Slight Moderate High
Time2050Z 01/22Z 01/23Z 02/00Z 02/01Z 02/02Z 02/03Z 02/04Z 02/05Z 02/06Z 02/07Z 02/08Z 02/09Z 02/10Z>>
Type OBS PRVL PRVL PRVL PRVL
  [PRB30]  
PRVL
  [PRB30]  
PRVL
  [PRB30]  
PRVL
  [PRB30]  
PRVL PRVL PRVL PRVL PRVL PRVL
VIS >6 >6 >6 >6 >6 >6 >6 >6 >6 >6 >6 >6 >6 >6
CIG -- 20 20 20 20
  [12]  
20
  [12]  
20
  [12]  
20
  [12]  
11 11 11 11 11 11
Cover FEW BKN BKN BKN BKN
  [BKN]  
BKN
  [BKN]  
BKN
  [BKN]  
BKN
  [BKN]  
BKN BKN BKN BKN BKN BKN
FltCat VFR MVFR MVFR MVFR MVFR
  [MVFR]  
MVFR
  [MVFR]  
MVFR
  [MVFR]  
MVFR
  [MVFR]  
MVFR MVFR MVFR MVFR MVFR MVFR
WX -- -- -- -- --
  [SHRA SHSN]  
--
  [SHRA SHSN]  
--
  [SHRA SHSN]  
--
  [SHRA SHSN]  
-- -- -- -- -- --
WDir 270 280 280 280 280
[280]
280
[280]
280
[280]
280
[280]
280 280 280 280 280 280
WSpd 10 7 7 7 7
  [7]  
7
  [7]  
7
  [7]  
7
  [7]  
7 7 7 7 7 7
WGst -- -- -- -- --
  [--]  
--
  [--]  
--
  [--]  
--
  [--]  
-- -- -- -- -- --
WSHgt -- -- -- -- --
[--]
--
[--]
--
[--]
--
[--]
-- -- -- -- -- --
WSDir -- -- -- -- --
[--]
--
[--]
--
[--]
--
[--]
-- -- -- -- -- --
WSSpd -- -- -- -- --
[--]
--
[--]
--
[--]
--
[--]
-- -- -- -- -- --
Raw TAF
TAF EDDK 011700Z 0118/0224 28012KT 9999 BKN020
  TEMPO 0118/0121 28015G25KT SHRA BKN015CB
  BECMG 0122/0201 28007KT
  PROB30
  TEMPO 0201/0205 SHRASN BKN012CB
  BECMG 0205/0207 BKN011
  BECMG 0211/0214 BKN020
  TEMPO 0211/0216 29012KT SHRAGS BKN015CB


Raw METAR
EDDK 012050Z 27010KT 9999 FEW014 06/04 Q0997 NOSIG
EDDK 012020Z 27010KT 9999 -RA FEW006 SCT014 BKN032 06/05 Q0997 NOSIG
EDDK 011950Z 28012KT 9999 -RA FEW006 SCT014 BKN032 06/04 Q0996 RERA NOSIG
EDDK 011920Z 27013KT 250V310 9999 -RA FEW006 SCT014 BKN028 06/05 Q0996 RERA BECMG 28009KT
EDDK 011850Z 28016G28KT 9999 RA FEW006 BKN014 07/05 Q0995 BECMG NSW BKN020

METAR Board
For situational awareness. Not to be used for flight planning purposes.